createdAt,value
2018-08-31T00:00:23.428Z,17.3
2018-08-31T00:01:13.267Z,17.3
2018-08-31T00:02:03.091Z,17.3
2018-08-31T00:02:53.160Z,17.3
2018-08-31T00:03:43.421Z,17.2
2018-08-31T00:04:33.263Z,17.3
2018-08-31T00:05:23.300Z,17.2
2018-08-31T00:06:13.639Z,17.2
2018-08-31T00:07:03.710Z,17.1
2018-08-31T00:07:53.772Z,17.1
2018-08-31T00:08:43.847Z,17.1
2018-08-31T00:09:33.882Z,17.1
2018-08-31T00:10:24.260Z,17.1
2018-08-31T00:11:14.007Z,17.1
2018-08-31T00:12:03.512Z,17.1
2018-08-31T00:31:28.955Z,16.6
2018-08-31T00:32:17.680Z,16.6
2018-08-31T00:33:07.775Z,16.6
2018-08-31T00:33:58.392Z,16.6
2018-08-31T00:34:48.155Z,16.6
2018-08-31T00:35:38.528Z,16.6
2018-08-31T00:36:28.521Z,16.6
2018-08-31T00:37:18.631Z,16.5
2018-08-31T00:38:08.412Z,16.5
2018-08-31T00:38:58.757Z,16.5
2018-08-31T00:39:48.565Z,16.5
2018-08-31T00:40:38.650Z,16.5
2018-08-31T00:41:28.916Z,16.5
2018-08-31T00:42:18.820Z,16.4
2018-08-31T00:43:09.070Z,16.4
2018-08-31T00:43:58.878Z,16.3
2018-08-31T00:44:49.192Z,16.3
2018-08-31T00:45:39.274Z,16.3
2018-08-31T00:46:29.407Z,16.3
2018-08-31T00:47:19.105Z,16.2
2018-08-31T00:48:09.485Z,16.1
2018-08-31T00:48:59.282Z,16.1
2018-08-31T00:49:49.644Z,16.1
2018-08-31T00:50:39.394Z,16.1
2018-08-31T00:51:29.162Z,16.1
2018-08-31T00:52:19.783Z,16
2018-08-31T00:53:09.852Z,15.9
2018-08-31T00:53:59.901Z,15.9
2018-08-31T00:54:49.676Z,16
2018-08-31T00:55:40.037Z,15.9
2018-08-31T00:56:29.556Z,15.9
2018-08-31T00:57:20.125Z,15.9
2018-08-31T00:58:09.951Z,15.9
2018-08-31T00:59:00.311Z,15.9
2018-08-31T00:59:49.784Z,15.8
2018-08-31T01:00:40.446Z,15.8
2018-08-31T01:01:30.467Z,15.8
2018-08-31T01:02:20.242Z,15.8
2018-08-31T01:03:10.107Z,15.8
2018-08-31T01:04:00.705Z,15.8
2018-08-31T01:04:50.464Z,15.8
2018-08-31T01:05:39.940Z,15.8
2018-08-31T01:06:30.593Z,15.8
2018-08-31T01:07:21.195Z,15.8
2018-08-31T01:08:10.430Z,15.8
2018-08-31T01:09:01.075Z,15.8
2018-08-31T01:09:51.125Z,15.7
2018-08-31T01:10:40.887Z,15.6
2018-08-31T01:11:30.988Z,15.6
2018-08-31T01:12:21.293Z,15.6
2018-08-31T01:13:11.685Z,15.6
2018-08-31T01:14:01.172Z,15.6
2018-08-31T01:14:51.315Z,15.6
2018-08-31T01:15:41.586Z,15.6
2018-08-31T01:16:31.636Z,15.6
2018-08-31T01:17:21.431Z,15.7
2018-08-31T01:18:11.765Z,15.7
2018-08-31T01:19:01.845Z,15.8
2018-08-31T01:19:51.613Z,15.8
2018-08-31T01:20:41.961Z,15.8
2018-08-31T01:21:31.743Z,15.8
2018-08-31T01:22:22.098Z,15.6
2018-08-31T01:23:11.874Z,15.7
2018-08-31T01:24:01.948Z,15.7
2018-08-31T01:24:52.340Z,15.7
2018-08-31T01:25:42.384Z,15.7
2018-08-31T01:26:32.120Z,15.7
2018-08-31T01:27:22.502Z,15.7
2018-08-31T01:28:12.265Z,15.7
2018-08-31T01:29:02.622Z,15.8
2018-08-31T01:29:52.678Z,15.8
2018-08-31T01:30:42.437Z,15.8
2018-08-31T01:31:32.524Z,15.7
2018-08-31T01:32:22.295Z,15.8
2018-08-31T01:33:12.996Z,15.8
2018-08-31T01:34:03.021Z,15.8
2018-08-31T01:34:52.798Z,15.8
2018-08-31T01:35:42.895Z,15.8
2018-08-31T01:36:33.206Z,15.8
2018-08-31T01:37:22.969Z,15.8
2018-08-31T01:38:13.334Z,15.8
2018-08-31T01:39:03.414Z,15.9
2018-08-31T01:39:53.184Z,15.9
2018-08-31T01:40:43.216Z,15.9
2018-08-31T01:41:33.316Z,15.9
2018-08-31T01:42:23.381Z,15.9
2018-08-31T01:43:13.426Z,15.9
2018-08-31T01:44:03.820Z,15.9
2018-08-31T01:44:53.821Z,15.9
2018-08-31T01:45:43.905Z,15.9
2018-08-31T01:46:33.948Z,15.9
2018-08-31T01:47:23.741Z,15.9
2018-08-31T01:48:14.058Z,15.8
2018-08-31T01:49:04.155Z,15.8
2018-08-31T01:49:53.911Z,15.8
2018-08-31T01:50:43.981Z,15.8
2018-08-31T01:51:34.350Z,15.9
2018-08-31T01:52:24.363Z,15.9
2018-08-31T01:53:14.185Z,15.9
2018-08-31T01:54:04.648Z,15.9
2018-08-31T01:54:54.032Z,15.9
2018-08-31T01:55:44.408Z,15.9
2018-08-31T01:56:34.436Z,15.9
2018-08-31T01:57:24.535Z,16
2018-08-31T01:58:14.578Z,16
2018-08-31T01:59:04.936Z,16
2018-08-31T01:59:54.708Z,16
2018-08-31T02:00:44.508Z,16.1
2018-08-31T02:01:35.100Z,16.1
2018-08-31T02:02:25.187Z,16.1
2018-08-31T02:03:14.964Z,16
2018-08-31T02:04:05.686Z,16
2018-08-31T02:04:54.813Z,16
2018-08-31T02:05:45.448Z,16
2018-08-31T02:06:35.497Z,16
2018-08-31T02:07:25.573Z,16
2018-08-31T02:08:15.325Z,16
2018-08-31T02:09:05.692Z,16
2018-08-31T02:09:55.810Z,16
2018-08-31T02:10:45.516Z,16
2018-08-31T02:11:35.029Z,16.1
2018-08-31T02:12:25.384Z,16.1
2018-08-31T02:13:15.727Z,16.1
2018-08-31T02:14:06.094Z,16.1
2018-08-31T02:14:55.854Z,16.1
2018-08-31T02:15:46.202Z,16
2018-08-31T02:16:36.271Z,16
2018-08-31T02:17:26.045Z,16
2018-08-31T02:18:16.104Z,15.9
2018-08-31T02:19:05.338Z,15.9
2018-08-31T02:19:56.253Z,15.9
2018-08-31T02:20:46.593Z,15.9
2018-08-31T02:21:36.405Z,15.8
2018-08-31T02:22:26.144Z,15.9
2018-08-31T02:23:16.561Z,15.9
2018-08-31T02:24:06.864Z,15.9
2018-08-31T02:24:56.650Z,15.9
2018-08-31T02:25:46.988Z,15.8
2018-08-31T02:26:37.314Z,15.8
2018-08-31T02:27:27.106Z,15.8
2018-08-31T02:28:16.901Z,15.9
2018-08-31T02:29:06.944Z,15.9
2018-08-31T02:29:57.307Z,15.9
2018-08-31T02:30:46.801Z,15.9
2018-08-31T02:31:37.429Z,15.9
2018-08-31T02:32:27.486Z,15.9
2018-08-31T02:33:17.565Z,15.9
2018-08-31T02:34:07.903Z,15.9
2018-08-31T02:34:57.400Z,15.9
2018-08-31T02:35:47.734Z,15.8
2018-08-31T02:36:37.538Z,15.8
2018-08-31T02:37:27.881Z,15.9
2018-08-31T02:38:17.928Z,15.9
2018-08-31T02:39:08.192Z,15.9
2018-08-31T02:39:58.069Z,15.9
2018-08-31T02:40:48.127Z,15.8
2018-08-31T02:41:37.905Z,15.8
2018-08-31T02:42:27.973Z,15.8
2018-08-31T02:43:18.030Z,15.8
2018-08-31T02:44:08.104Z,15.9
2018-08-31T02:44:58.680Z,15.9
2018-08-31T02:45:48.247Z,15.8
2018-08-31T02:46:38.300Z,15.9
2018-08-31T02:47:28.639Z,15.9
2018-08-31T02:48:18.732Z,16
2018-08-31T02:49:08.215Z,16
2018-08-31T02:49:58.827Z,16
2018-08-31T02:50:48.824Z,16
2018-08-31T02:51:38.955Z,16
2018-08-31T02:52:28.810Z,16
2018-08-31T02:53:18.516Z,16
2018-08-31T02:54:09.172Z,16
2018-08-31T02:54:59.222Z,15.9
2018-08-31T02:55:48.754Z,15.9
2018-08-31T02:56:39.056Z,16
2018-08-31T02:57:29.419Z,15.9
2018-08-31T02:58:19.485Z,15.9
2018-08-31T02:59:09.535Z,15.9
2018-08-31T02:59:59.882Z,15.8
2018-08-31T03:00:49.662Z,15.7
2018-08-31T03:01:39.787Z,15.7
2018-08-31T03:02:29.497Z,15.6
2018-08-31T03:03:19.004Z,15.6
2018-08-31T03:04:09.922Z,15.4
2018-08-31T03:04:59.939Z,15.3
2018-08-31T03:05:49.762Z,15.3
2018-08-31T03:06:40.079Z,15.3
2018-08-31T03:07:29.604Z,15.3
2018-08-31T03:08:19.688Z,15.4
2018-08-31T03:09:10.036Z,15.4
2018-08-31T03:10:00.109Z,15.4
2018-08-31T03:10:50.729Z,15.4
2018-08-31T03:11:41.365Z,15.4
2018-08-31T03:12:30.353Z,15.4
2018-08-31T03:13:20.392Z,15.4
2018-08-31T03:14:10.707Z,15.4
2018-08-31T03:15:00.467Z,15.4
2018-08-31T03:15:50.851Z,15.4
2018-08-31T03:16:40.878Z,15.3
2018-08-31T03:17:30.951Z,15.2
2018-08-31T03:18:20.412Z,15.1
2018-08-31T03:19:11.148Z,15
2018-08-31T03:20:00.942Z,15
2018-08-31T03:20:51.186Z,14.9
2018-08-31T03:21:41.548Z,15
2018-08-31T03:22:31.335Z,14.9
2018-08-31T03:23:21.130Z,14.9
2018-08-31T03:24:11.190Z,14.9
2018-08-31T03:25:01.273Z,14.8
2018-08-31T03:25:51.637Z,14.8
2018-08-31T03:26:41.372Z,14.8
2018-08-31T03:27:31.730Z,14.8
2018-08-31T03:28:21.778Z,14.8
2018-08-31T03:29:11.842Z,14.8
2018-08-31T03:30:01.639Z,14.8
2018-08-31T03:30:51.731Z,14.8
2018-08-31T03:31:41.513Z,14.7
2018-08-31T03:32:32.172Z,14.8
2018-08-31T03:33:22.179Z,14.8
2018-08-31T03:34:12.217Z,14.8
2018-08-31T03:35:02.445Z,14.9
2018-08-31T03:35:52.312Z,14.9
2018-08-31T03:36:42.497Z,14.9
2018-08-31T03:37:32.217Z,14.9
2018-08-31T03:38:22.559Z,14.9
2018-08-31T03:39:12.620Z,14.9
2018-08-31T03:40:02.682Z,14.9
2018-08-31T03:40:52.996Z,14.9
2018-08-31T03:41:42.804Z,14.9
2018-08-31T03:42:31.996Z,15
2018-08-31T03:43:22.724Z,15.1
2018-08-31T03:44:12.414Z,15.1
2018-08-31T03:45:02.782Z,15.1
2018-08-31T03:45:53.379Z,15.1
2018-08-31T03:46:43.198Z,15.2
2018-08-31T03:47:33.255Z,15.2
2018-08-31T03:48:23.058Z,15.2
2018-08-31T03:49:13.102Z,15.2
2018-08-31T03:50:03.169Z,15.1
2018-08-31T03:50:53.185Z,15.1
2018-08-31T03:51:43.588Z,15.1
2018-08-31T03:52:33.680Z,15.1
2018-08-31T03:53:23.140Z,15.1
2018-08-31T03:54:13.761Z,15.1
2018-08-31T03:55:03.821Z,15.1
2018-08-31T03:55:53.888Z,15
2018-08-31T03:56:43.638Z,15.1
2018-08-31T03:57:34.278Z,15.1
2018-08-31T03:58:23.514Z,15.1
2018-08-31T03:59:14.131Z,15.1
2018-08-31T04:00:03.930Z,15.2
2018-08-31T04:00:54.298Z,15.2
2018-08-31T04:01:44.342Z,15.2
2018-08-31T04:02:34.401Z,15.2
2018-08-31T04:03:24.521Z,15.2
2018-08-31T04:04:14.540Z,15.3
2018-08-31T04:05:04.328Z,15.3
2018-08-31T04:05:54.665Z,15.4
2018-08-31T04:06:44.973Z,15.4
2018-08-31T04:07:35.034Z,15.4
2018-08-31T04:08:24.864Z,15.3
2018-08-31T04:09:14.634Z,15.3
2018-08-31T04:10:05.019Z,15.3
2018-08-31T04:10:55.052Z,15.3
2018-08-31T04:11:45.092Z,15.3
2018-08-31T04:12:35.176Z,15.3
2018-08-31T04:13:25.241Z,15.3
2018-08-31T04:14:15.293Z,15.4
2018-08-31T04:15:05.850Z,15.4
2018-08-31T04:15:55.439Z,15.4
2018-08-31T04:16:44.885Z,15.3
2018-08-31T04:17:34.972Z,15.3
2018-08-31T04:18:25.626Z,15.3
2018-08-31T04:19:15.685Z,15.3
2018-08-31T04:20:05.731Z,15.3
2018-08-31T04:20:55.798Z,15.4
2018-08-31T04:21:45.592Z,15.3
2018-08-31T04:22:35.669Z,15.3
2018-08-31T04:23:25.703Z,15.2
2018-08-31T04:24:15.816Z,15.2
2018-08-31T04:25:05.841Z,15.1
2018-08-31T04:25:55.652Z,15.1
2018-08-31T04:26:46.255Z,15.1
2018-08-31T04:27:36.311Z,15.1
2018-08-31T04:28:26.216Z,15.1
2018-08-31T04:29:16.278Z,15.1
2018-08-31T04:30:06.531Z,15.1
2018-08-31T04:30:56.293Z,15.1
2018-08-31T04:31:46.338Z,15.1
2018-08-31T04:32:36.421Z,15.1
2018-08-31T04:33:26.786Z,15.2
2018-08-31T04:34:17.256Z,15.2
2018-08-31T04:35:06.346Z,15.2
2018-08-31T04:35:56.383Z,15.2
2018-08-31T04:36:46.731Z,15.3
2018-08-31T04:37:36.518Z,15.4
2018-08-31T04:38:27.366Z,15.5
2018-08-31T04:39:16.666Z,15.6
2018-08-31T04:40:07.018Z,15.6
2018-08-31T04:40:56.208Z,15.6
2018-08-31T04:41:47.414Z,15.7
2018-08-31T04:42:36.979Z,15.8
2018-08-31T05:00:15.401Z,16.6
2018-08-31T05:01:05.350Z,16.7
2018-08-31T05:01:55.688Z,16.8
2018-08-31T05:02:46.037Z,16.9
2018-08-31T05:03:35.609Z,17.1
2018-08-31T05:06:06.032Z,17.1
2018-08-31T05:06:56.332Z,17.1
2018-08-31T05:07:46.107Z,17.2
2018-08-31T05:08:35.720Z,17.3
2018-08-31T05:09:26.267Z,17.3
2018-08-31T05:10:16.311Z,17.3
2018-08-31T05:11:06.396Z,17.3
2018-08-31T05:11:56.169Z,17.5
2018-08-31T05:12:47.053Z,17.7
2018-08-31T05:13:36.848Z,17.8
2018-08-31T05:14:26.476Z,17.9
2018-08-31T05:15:16.712Z,17.9
2018-08-31T05:16:07.574Z,17.8
2018-08-31T05:16:56.800Z,17.8
2018-08-31T05:17:47.202Z,17.8
2018-08-31T05:18:37.225Z,17.8
2018-08-31T05:19:27.019Z,17.8
2018-08-31T05:20:17.096Z,17.8
2018-08-31T05:21:06.930Z,17.8
2018-08-31T05:21:57.448Z,17.7
2018-08-31T05:22:48.402Z,17.8
2018-08-31T05:23:37.608Z,17.8
2018-08-31T05:24:27.705Z,17.8
2018-08-31T05:25:17.808Z,17.8
2018-08-31T05:26:07.835Z,17.8
2018-08-31T05:26:57.885Z,17.8
2018-08-31T05:27:47.382Z,17.9
2018-08-31T05:28:38.162Z,17.9
2018-08-31T05:29:27.846Z,17.9
2018-08-31T05:30:17.867Z,18.1
2018-08-31T05:31:08.242Z,18.1
2018-08-31T05:31:58.260Z,18.1
2018-08-31T05:32:48.404Z,18
2018-08-31T05:33:38.400Z,17.9
2018-08-31T05:34:27.597Z,18.1
2018-08-31T05:35:18.250Z,18.2
2018-08-31T05:36:08.835Z,18.2
2018-08-31T05:36:57.615Z,18.2
2018-08-31T05:37:48.438Z,18.3
2018-08-31T05:38:38.800Z,18.4
2018-08-31T05:39:28.872Z,18.4
2018-08-31T05:40:18.923Z,18.4
2018-08-31T05:41:08.693Z,18.4
2018-08-31T05:41:59.045Z,18.6
2018-08-31T05:42:48.819Z,18.8
2018-08-31T05:43:39.162Z,18.9
2018-08-31T05:44:28.684Z,18.8
2018-08-31T05:46:09.090Z,18.8
2018-08-31T05:46:59.169Z,18.8
2018-08-31T05:47:48.654Z,18.8
2018-08-31T05:48:39.590Z,18.9
2018-08-31T05:49:29.328Z,18.6
2018-08-31T05:50:19.427Z,18.6
2018-08-31T05:51:10.017Z,18.6
2018-08-31T05:51:59.536Z,18.8
2018-08-31T05:52:49.576Z,19
2018-08-31T05:53:39.627Z,19.1
2018-08-31T05:54:30.000Z,19.4
2018-08-31T05:55:20.088Z,19.5
2018-08-31T05:56:09.839Z,19.4
2018-08-31T05:57:00.181Z,19.6
2018-08-31T05:57:49.700Z,19.8
2018-08-31T05:58:40.321Z,19.9
2018-08-31T05:59:30.363Z,19.9
2018-08-31T06:00:20.178Z,19.8
2018-08-31T06:01:10.785Z,19.8
2018-08-31T06:02:00.592Z,19.9
2018-08-31T06:02:50.696Z,19.9
2018-08-31T06:03:40.729Z,19.8
2018-08-31T06:04:30.768Z,19.8
2018-08-31T06:05:20.832Z,20
2018-08-31T06:06:10.326Z,20.1
2018-08-31T06:07:00.722Z,20.3
2018-08-31T06:07:50.764Z,20.4
2018-08-31T06:08:40.808Z,20.4
2018-08-31T06:09:31.160Z,20.4
2018-08-31T06:10:21.235Z,20.3
2018-08-31T06:11:10.713Z,20.6
2018-08-31T06:12:02.414Z,20.8
2018-08-31T06:12:50.618Z,20.8
2018-08-31T06:13:41.427Z,20.8
2018-08-31T06:14:31.575Z,20.9
2018-08-31T06:15:21.340Z,20.9
2018-08-31T06:16:11.394Z,21
2018-08-31T06:17:01.465Z,20.8
2018-08-31T06:17:51.517Z,20.8
2018-08-31T06:18:41.320Z,20.9
2018-08-31T06:19:31.688Z,21.1
2018-08-31T06:20:21.432Z,21.3
2018-08-31T06:21:12.905Z,21.4
2018-08-31T06:22:01.641Z,21.3
2018-08-31T06:22:51.384Z,21.2
2018-08-31T06:23:41.994Z,21.2
2018-08-31T06:24:32.044Z,21.5
2018-08-31T06:25:22.641Z,21.7
2018-08-31T06:26:12.460Z,22.1
2018-08-31T06:27:02.520Z,22.2
2018-08-31T06:27:51.994Z,22.2
2018-08-31T06:28:42.394Z,22.1
2018-08-31T06:29:32.709Z,22.1
2018-08-31T06:30:21.642Z,22.2
2018-08-31T06:31:12.546Z,22.3
2018-08-31T06:32:02.882Z,22.2
2018-08-31T06:32:53.487Z,22.2
2018-08-31T06:33:43.120Z,22.3
2018-08-31T06:34:33.114Z,22.3
2018-08-31T06:35:23.308Z,22.5
2018-08-31T06:36:13.250Z,22.8
2018-08-31T06:37:02.533Z,22.9
2018-08-31T06:37:53.038Z,22.9
2018-08-31T06:38:43.247Z,22.7
2018-08-31T06:39:33.489Z,22.6
2018-08-31T06:40:22.686Z,22.2
2018-08-31T06:41:13.348Z,22.5
2018-08-31T06:42:03.133Z,22.6
2018-08-31T06:42:53.465Z,22.6
2018-08-31T06:43:43.540Z,22.5
2018-08-31T06:44:33.579Z,22.8
2018-08-31T06:45:23.928Z,22.7
2018-08-31T06:46:14.010Z,22.9
2018-08-31T06:47:03.770Z,23
2018-08-31T06:47:53.567Z,23.3
2018-08-31T06:48:44.236Z,23.5
2018-08-31T06:49:34.249Z,23.5
2018-08-31T06:50:24.574Z,23.6
2018-08-31T06:51:13.679Z,23.7
2018-08-31T06:52:04.465Z,23.8
2018-08-31T06:52:54.257Z,23.6
2018-08-31T06:53:44.300Z,23.2
2018-08-31T06:54:34.665Z,22.9
2018-08-31T06:55:24.145Z,23
2018-08-31T06:56:14.782Z,23.3
2018-08-31T06:57:04.845Z,23.4
2018-08-31T06:57:54.889Z,23.8
2018-08-31T06:58:44.953Z,23.8
2018-08-31T06:59:35.045Z,23.9
2018-08-31T07:00:24.838Z,23.9
2018-08-31T07:01:15.169Z,23.9
2018-08-31T07:02:05.467Z,24
2018-08-31T07:02:54.869Z,24.4
2018-08-31T07:03:45.278Z,24.4
2018-08-31T07:04:35.147Z,24.1
2018-08-31T07:05:24.919Z,24.2
2018-08-31T07:06:15.798Z,24.1
2018-08-31T07:07:04.494Z,24.1
2018-08-31T07:07:55.946Z,23.9
2018-08-31T07:08:46.173Z,24.2
2018-08-31T07:09:37.397Z,24.3
2018-08-31T07:10:25.878Z,24.6
2018-08-31T07:11:16.219Z,24.8
2018-08-31T07:12:05.468Z,24.6
2018-08-31T07:12:55.804Z,24.4
2018-08-31T07:13:46.108Z,24.4
2018-08-31T07:14:36.196Z,24.4
2018-08-31T07:15:25.984Z,24.1
2018-08-31T07:16:16.610Z,23.9
2018-08-31T07:17:05.845Z,24.2
2018-08-31T07:17:56.197Z,24.6
2018-08-31T07:18:46.530Z,24.9
2018-08-31T07:19:36.653Z,25.3
2018-08-31T07:20:26.686Z,25.5
2018-08-31T07:21:16.496Z,25.6
2018-08-31T07:22:06.257Z,25.4
2018-08-31T07:22:56.312Z,25.6
2018-08-31T07:23:46.920Z,25.5
2018-08-31T07:24:36.984Z,25.3
2018-08-31T07:25:26.292Z,25.1
2018-08-31T07:26:17.466Z,24.7
2018-08-31T07:27:07.180Z,24.7
2018-08-31T07:27:56.973Z,24.8
2018-08-31T07:28:47.030Z,25.1
2018-08-31T07:29:37.375Z,25.3
2018-08-31T07:30:26.895Z,25.6
2018-08-31T07:31:17.510Z,25.9
2018-08-31T07:32:06.872Z,26.1
2018-08-31T07:32:57.375Z,26.2
2018-08-31T07:33:47.177Z,26.2
2018-08-31T07:34:37.787Z,25.9
2018-08-31T07:35:27.291Z,26.3
2018-08-31T07:36:18.530Z,26.4
2018-08-31T07:37:07.708Z,26.4
2018-08-31T07:37:58.020Z,26.1
2018-08-31T07:38:47.832Z,26.3
2018-08-31T07:39:38.172Z,26.6
2018-08-31T07:40:27.654Z,26.6
2018-08-31T07:41:18.010Z,26.4
2018-08-31T07:42:08.384Z,26.4
2018-08-31T07:42:58.421Z,26.4
2018-08-31T07:43:48.488Z,26.2
2018-08-31T07:44:38.252Z,25.9
2018-08-31T07:45:28.314Z,25.8
2018-08-31T07:46:18.392Z,25.9
2018-08-31T07:47:08.993Z,25.9
2018-08-31T07:47:58.964Z,25.7
2018-08-31T07:48:48.879Z,25.4
2018-08-31T07:49:38.388Z,25.6
2018-08-31T07:50:29.016Z,26.2
2018-08-31T07:51:18.799Z,26.4
2018-08-31T07:52:09.389Z,26.4
2018-08-31T07:52:59.243Z,26.5
2018-08-31T07:53:49.581Z,26.6
2018-08-31T07:54:39.531Z,26.5
2018-08-31T07:55:29.390Z,26.4
2018-08-31T07:56:19.438Z,26.6
2018-08-31T07:57:09.525Z,26.5
2018-08-31T07:57:59.044Z,26.8
2018-08-31T07:58:48.836Z,27.1
2018-08-31T07:59:39.685Z,27.5
2018-08-31T08:00:29.509Z,27.6
2018-08-31T08:01:19.839Z,27.3
2018-08-31T08:02:09.605Z,27.4
2018-08-31T08:02:59.691Z,26.8
2018-08-31T08:03:49.496Z,26.7
2018-08-31T08:04:39.588Z,26.8
2018-08-31T08:05:29.844Z,27
2018-08-31T08:06:19.778Z,27.1
2018-08-31T08:07:10.343Z,27.2
2018-08-31T08:08:00.076Z,26.9
2018-08-31T08:08:50.412Z,27.2
2018-08-31T08:09:39.925Z,27.3
2018-08-31T08:10:30.280Z,26.9
2018-08-31T08:11:20.060Z,26.4
2018-08-31T08:12:10.661Z,26.1
2018-08-31T08:13:00.490Z,25.9
2018-08-31T08:13:50.278Z,26.2
2018-08-31T08:14:40.759Z,26
2018-08-31T08:15:30.987Z,26.3
2018-08-31T08:16:20.763Z,26.3
2018-08-31T08:17:10.317Z,26.6
2018-08-31T08:18:01.131Z,26.4
2018-08-31T08:18:50.636Z,26.8
2018-08-31T08:19:41.730Z,26.4
2018-08-31T08:20:31.188Z,26.6
2018-08-31T08:21:21.380Z,26.9
2018-08-31T08:22:11.213Z,27
2018-08-31T08:23:01.522Z,27.4
2018-08-31T08:23:51.030Z,27.4
2018-08-31T08:24:41.135Z,27.3
2018-08-31T08:25:31.748Z,26.8
2018-08-31T08:26:21.751Z,26.5
2018-08-31T08:27:11.878Z,27.1
2018-08-31T08:28:01.375Z,27.7
2018-08-31T08:28:51.702Z,27.9
2018-08-31T08:29:42.103Z,28.3
2018-08-31T08:30:31.862Z,27.9
2018-08-31T08:31:21.669Z,27.2
2018-08-31T08:32:12.252Z,26.9
2018-08-31T08:33:02.036Z,27.1
2018-08-31T08:33:51.559Z,27.1
2018-08-31T08:34:41.879Z,27.3
2018-08-31T08:35:32.544Z,27.2
2018-08-31T08:36:22.539Z,27.4
2018-08-31T08:37:12.389Z,27.2
2018-08-31T08:38:02.152Z,27.4
2018-08-31T08:39:42.840Z,28.1
2018-08-31T08:40:32.651Z,28.4
2018-08-31T08:41:22.958Z,28.9
2018-08-31T08:42:14.118Z,29.3
2018-08-31T08:43:02.821Z,29
2018-08-31T08:43:53.171Z,28.4
2018-08-31T08:44:42.655Z,28.1
2018-08-31T08:45:33.287Z,28.1
2018-08-31T08:46:23.078Z,27.4
2018-08-31T08:47:13.415Z,27.4
2018-08-31T08:48:03.223Z,28
2018-08-31T08:49:43.611Z,28.1
2018-08-31T08:50:32.853Z,28.4
2018-08-31T08:51:23.775Z,28.7
2018-08-31T08:52:13.827Z,28.6
2018-08-31T08:53:04.123Z,29.1
2018-08-31T08:53:54.183Z,29.2
2018-08-31T08:54:43.916Z,28.5
2018-08-31T08:55:34.093Z,28.9
2018-08-31T08:56:23.841Z,29.3
2018-08-31T08:57:13.952Z,28.9
2018-08-31T08:58:04.410Z,29.1
2018-08-31T09:14:47.010Z,28.4
2018-08-31T09:15:36.885Z,28.5
2018-08-31T09:16:26.684Z,28.8
2018-08-31T09:17:17.009Z,29.6
2018-08-31T09:18:06.817Z,30.1
2018-08-31T09:18:56.898Z,29.8
2018-08-31T09:19:47.186Z,29.2
2018-08-31T09:20:36.991Z,29.1
2018-08-31T09:21:27.078Z,29.6
2018-08-31T09:22:17.163Z,29.9
2018-08-31T09:23:07.453Z,29.8
2018-08-31T09:23:57.578Z,29.4
2018-08-31T09:24:48.355Z,29.5
2018-08-31T09:25:37.688Z,29.3
2018-08-31T09:26:27.714Z,29.5
2018-08-31T09:27:17.820Z,29.4
2018-08-31T09:28:07.569Z,29.3
2018-08-31T09:28:57.355Z,29.3
2018-08-31T09:29:47.418Z,29.4
2018-08-31T09:30:37.772Z,29.8
2018-08-31T09:31:28.115Z,30.3
2018-08-31T09:32:17.930Z,30.9
2018-08-31T09:33:07.980Z,30.5
2018-08-31T09:33:58.305Z,30.4
2018-08-31T09:34:48.632Z,30.6
2018-08-31T09:35:38.454Z,30.7
2018-08-31T09:36:27.933Z,30.6
2018-08-31T09:37:18.604Z,30.8
2018-08-31T09:38:08.352Z,31.1
2018-08-31T09:38:58.148Z,31.1
2018-08-31T09:39:48.765Z,30.9
2018-08-31T09:40:38.790Z,30.7
2018-08-31T09:41:28.884Z,29.6
2018-08-31T09:42:18.965Z,29.4
2018-08-31T09:43:09.025Z,29.6
2018-08-31T09:43:59.409Z,30.3
2018-08-31T09:44:48.325Z,30.6
2018-08-31T09:45:39.219Z,30.5
2018-08-31T09:46:28.992Z,30.8
2018-08-31T09:47:18.819Z,30.8
2018-08-31T09:48:09.398Z,30.4
2018-08-31T09:48:59.475Z,30.9
2018-08-31T09:49:50.443Z,31.1
2018-08-31T09:50:39.569Z,31.6
2018-08-31T09:51:29.391Z,31.6
2018-08-31T09:52:19.737Z,31.7
2018-08-31T09:53:09.539Z,31.5
2018-08-31T09:53:59.594Z,31.2
2018-08-31T09:54:49.389Z,31.1
2018-08-31T09:55:39.983Z,31.1
2018-08-31T09:56:29.496Z,31.7
2018-08-31T09:57:35.556Z,30.4
2018-08-31T09:58:48.371Z,30.6
2018-08-31T09:59:21.939Z,30.7
2018-08-31T10:00:11.967Z,30.9
2018-08-31T10:01:02.806Z,30.9
2018-08-31T10:01:52.313Z,31.4
2018-08-31T10:02:42.201Z,31.4
2018-08-31T10:03:32.475Z,31.1
2018-08-31T10:04:22.555Z,31.3
2018-08-31T10:05:12.638Z,31.3
2018-08-31T10:06:02.116Z,31.4
2018-08-31T10:06:52.178Z,31.7
2018-08-31T10:07:42.239Z,32.1
2018-08-31T10:08:32.615Z,32.1
2018-08-31T10:09:22.745Z,32.1
2018-08-31T10:10:13.023Z,32.6
2018-08-31T10:11:03.110Z,32.6
2018-08-31T10:11:52.298Z,32.9
2018-08-31T10:12:43.224Z,32.6
2018-08-31T10:13:33.551Z,32
2018-08-31T10:14:23.336Z,31.1
2018-08-31T10:15:13.131Z,30.9
2018-08-31T10:16:03.469Z,30.9
2018-08-31T10:16:53.525Z,30.4
2018-08-31T10:17:43.584Z,30.2
2018-08-31T10:18:33.902Z,30.3
2018-08-31T10:19:24.044Z,30.6
2018-08-31T10:20:13.792Z,30.6
2018-08-31T10:21:03.831Z,31.2
2018-08-31T10:21:53.920Z,31.6
2018-08-31T10:22:43.976Z,32
2018-08-31T10:23:34.048Z,32.5
2018-08-31T10:24:24.377Z,32.3
2018-08-31T10:25:14.190Z,32.3
2018-08-31T10:26:04.520Z,32.7
2018-08-31T10:26:53.627Z,32.8
2018-08-31T10:27:44.648Z,32.7
2018-08-31T10:28:34.151Z,32.7
2018-08-31T10:29:24.519Z,33.4
2018-08-31T10:30:14.845Z,33.8
2018-08-31T10:31:04.812Z,34.1
2018-08-31T10:31:54.667Z,33.9
2018-08-31T10:32:44.777Z,33
2018-08-31T10:33:34.548Z,32.2
2018-08-31T10:34:24.951Z,32.3
2018-08-31T10:35:14.398Z,32.4
2018-08-31T10:36:04.750Z,32.3
2018-08-31T10:36:55.078Z,32.9
2018-08-31T10:37:45.230Z,32.9
2018-08-31T10:38:35.225Z,33
2018-08-31T10:39:25.241Z,32.5
2018-08-31T10:40:14.900Z,32.7
2018-08-31T10:41:05.427Z,32.6
2018-08-31T10:41:55.210Z,32.7
2018-08-31T10:42:44.980Z,32.8
2018-08-31T10:43:35.056Z,33.3
2018-08-31T10:44:25.623Z,32.8
2018-08-31T10:45:15.468Z,32.9
2018-08-31T10:46:05.807Z,33.4
2018-08-31T10:46:55.888Z,33.6
2018-08-31T10:47:46.210Z,33.6
2018-08-31T10:48:36.019Z,33.2
2018-08-31T10:49:25.814Z,32.7
2018-08-31T10:50:16.136Z,33.2
2018-08-31T10:51:05.897Z,33.6
2018-08-31T10:51:56.252Z,33.9
2018-08-31T10:52:46.065Z,34.4
2018-08-31T10:53:36.112Z,34
2018-08-31T10:54:26.451Z,32.6
2018-08-31T10:55:16.550Z,31.9
2018-08-31T10:56:06.311Z,31.9
2018-08-31T10:56:56.694Z,32.4
2018-08-31T10:57:46.709Z,33.1
2018-08-31T10:58:36.526Z,32.6
2018-08-31T10:59:26.875Z,31.9
2018-08-31T11:00:16.680Z,32.1
2018-08-31T11:01:06.464Z,31.9
2018-08-31T11:01:57.045Z,31.9
2018-08-31T11:02:47.133Z,31.9
2018-08-31T11:03:37.340Z,32.4
2018-08-31T11:04:26.991Z,32.9
2018-08-31T11:05:16.751Z,33.2
2018-08-31T11:06:07.386Z,32.8
2018-08-31T11:06:57.445Z,32.4
2018-08-31T11:07:47.538Z,31.6
2018-08-31T11:08:37.838Z,31
2018-08-31T11:09:27.659Z,30.9
2018-08-31T11:10:17.698Z,30.8
2018-08-31T11:11:07.796Z,31.2
2018-08-31T11:11:57.549Z,32.3
2018-08-31T11:12:49.339Z,32.9
2018-08-31T11:13:38.219Z,33.6
2018-08-31T11:14:27.744Z,33.3
2018-08-31T11:15:18.914Z,32.9
2018-08-31T11:16:08.136Z,32.6
2018-08-31T11:16:58.236Z,32.3
2018-08-31T11:17:47.996Z,33.2
2018-08-31T11:18:38.106Z,33.3
2018-08-31T11:19:27.819Z,32.9
2018-08-31T11:20:18.481Z,32.9
2018-08-31T11:21:08.537Z,33.1
2018-08-31T11:21:58.624Z,33.6
2018-08-31T11:22:48.668Z,33.5
2018-08-31T11:23:38.778Z,33.9
2018-08-31T11:24:28.782Z,34.4
2018-08-31T11:25:18.627Z,34.7
2018-08-31T11:26:08.650Z,34.9
2018-08-31T11:26:58.720Z,35.1
2018-08-31T11:27:48.913Z,34.6
2018-08-31T11:28:38.850Z,34.4
2018-08-31T11:29:28.955Z,34.4
2018-08-31T11:30:19.245Z,34.2
2018-08-31T11:31:08.773Z,34
2018-08-31T11:31:59.370Z,33.1
2018-08-31T11:32:49.515Z,33.4
2018-08-31T11:33:39.505Z,33.2
2018-08-31T11:34:45.431Z,33.6
2018-08-31T11:35:19.109Z,34.5
2018-08-31T11:36:12.148Z,34.6
2018-08-31T11:37:14.172Z,34.6
2018-08-31T11:37:49.579Z,34.3
2018-08-31T11:38:40.187Z,33.9
2018-08-31T11:39:30.186Z,34.1
2018-08-31T11:40:20.035Z,34.2
2018-08-31T11:41:10.767Z,34.4
2018-08-31T11:42:00.239Z,34.1
2018-08-31T11:43:19.504Z,32.8
2018-08-31T11:43:40.039Z,32.8
2018-08-31T11:44:30.347Z,32.8
2018-08-31T11:45:20.105Z,32.7
2018-08-31T11:46:10.229Z,33.4
2018-08-31T11:47:00.273Z,33.7
2018-08-31T11:47:51.685Z,34
2018-08-31T11:48:40.928Z,34.1
2018-08-31T11:49:30.959Z,34.2
2018-08-31T11:50:20.551Z,34
2018-08-31T11:51:10.596Z,33.1
2018-08-31T11:52:00.946Z,32.9
2018-08-31T11:52:51.035Z,32.6
2018-08-31T11:53:40.520Z,32.1
2018-08-31T11:54:31.179Z,32.8
2018-08-31T11:55:21.238Z,33.6
2018-08-31T11:56:10.991Z,34.4
2018-08-31T11:57:01.069Z,34.7
2018-08-31T11:57:51.147Z,34.3
2018-08-31T11:58:41.233Z,33.7
2018-08-31T11:59:31.256Z,33.4
2018-08-31T12:00:21.323Z,33.4
2018-08-31T12:01:11.755Z,33.9
2018-08-31T12:02:02.364Z,34.7
2018-08-31T12:02:51.235Z,34.6
2018-08-31T12:03:42.378Z,34.6
2018-08-31T12:04:31.938Z,33.6
2018-08-31T12:05:21.725Z,32.8